Time;durP1;ratioP1;P1;durP2;ratioP2;P2;SDS_P1;SDS_P2;PMS_P1;PMS_P2;Temp;Humidity;BMP_temperature;BMP_pressure;BME280_temperature;BME280_humidity;BME280_pressure;Samples;Min_cycle;Max_cycle;Signal;HPM_P1;HPM_P2
2022/12/13 00:00:17;;;;;;;5.15;1.20;;;;;;;;;;5127793;27;20039;-78
2022/12/13 00:02:48;;;;;;;4.13;1.30;;;;;;;;;;5128018;27;20038;-76
2022/12/13 00:05:18;;;;;;;4.45;1.35;;;;;;;;;;5130159;27;20054;-78
2022/12/13 00:07:48;;;;;;;4.13;1.67;;;;;;;;;;5127862;27;20047;-76
2022/12/13 00:10:18;;;;;;;3.92;1.73;;;;;;;;;;5126760;27;20051;-78
2022/12/13 00:12:48;;;;;;;5.07;1.80;;;;;;;;;;5127978;27;20168;-76
2022/12/13 00:15:18;;;;;;;5.38;1.58;;;;;;;;;;5129780;27;20046;-77
2022/12/13 00:17:48;;;;;;;5.32;1.70;;;;;;;;;;5129054;27;20046;-77
2022/12/13 00:20:18;;;;;;;6.63;1.35;;;;;;;;;;5129173;27;20035;-77
2022/12/13 00:22:50;;;;;;;8.40;1.50;;;;;;;;;;5124009;27;20034;-75
2022/12/13 00:25:21;;;;;;;4.88;1.42;;;;;;;;;;5127181;27;20035;-75
2022/12/13 00:27:50;;;;;;;3.65;1.20;;;;;;;;;;5124912;27;20046;-76
2022/12/13 00:30:20;;;;;;;5.40;1.50;;;;;;;;;;5126489;27;20035;-75
2022/12/13 00:32:50;;;;;;;6.32;1.98;;;;;;;;;;5124403;27;20043;-76
2022/12/13 00:35:21;;;;;;;6.63;1.45;;;;;;;;;;5125086;27;20062;-75
2022/12/13 00:37:51;;;;;;;6.68;1.77;;;;;;;;;;5124002;27;20108;-76
2022/12/13 00:40:20;;;;;;;5.85;1.88;;;;;;;;;;5127057;27;20035;-75
2022/12/13 00:42:51;;;;;;;7.10;1.63;;;;;;;;;;5124185;27;20047;-75
2022/12/13 00:45:21;;;;;;;2.78;1.13;;;;;;;;;;5126218;27;20050;-75
2022/12/13 00:47:52;;;;;;;5.63;1.65;;;;;;;;;;5127601;27;20043;-75
2022/12/13 00:50:22;;;;;;;8.35;1.13;;;;;;;;;;5125642;27;20470;-76
2022/12/13 00:52:52;;;;;;;5.35;1.25;;;;;;;;;;5126834;27;20039;-76
2022/12/13 00:55:21;;;;;;;5.75;1.48;;;;;;;;;;5126528;27;20043;-75
2022/12/13 00:57:51;;;;;;;6.28;1.35;;;;;;;;;;5124068;28;20050;-75
2022/12/13 01:00:21;;;;;;;2.90;1.33;;;;;;;;;;5125860;28;20565;-76
2022/12/13 01:02:54;;;;;;;3.33;1.75;;;;;;;;;;5127564;28;20040;-78
2022/12/13 01:05:25;;;;;;;5.97;1.50;;;;;;;;;;5126559;28;20090;-75
2022/12/13 01:08:15;;;;;;;7.18;1.30;;;;;;;;;;5126779;27;20046;-76
2022/12/13 01:10:46;;;;;;;9.70;1.85;;;;;;;;;;5125435;27;20436;-75
2022/12/13 01:13:16;;;;;;;3.65;1.30;;;;;;;;;;5126450;28;20378;-76
2022/12/13 01:15:47;;;;;;;7.40;1.40;;;;;;;;;;5126360;28;20043;-75
2022/12/13 01:18:17;;;;;;;9.57;2.90;;;;;;;;;;5126079;28;20047;-75
2022/12/13 01:21:10;;;;;;;6.63;1.58;;;;;;;;;;5127390;27;20051;-76
2022/12/13 01:23:41;;;;;;;7.30;1.60;;;;;;;;;;5128283;27;20035;-76
2022/12/13 01:26:15;;;;;;;8.02;1.45;;;;;;;;;;5120729;28;20044;-75
2022/12/13 01:28:46;;;;;;;3.47;1.63;;;;;;;;;;5107026;28;20040;-76
2022/12/13 01:31:18;;;;;;;6.07;1.40;;;;;;;;;;5105407;28;20401;-76
2022/12/13 01:33:49;;;;;;;3.28;1.55;;;;;;;;;;5125150;28;20392;-76
2022/12/13 01:36:21;;;;;;;5.50;1.25;;;;;;;;;;5127322;28;20035;-75
2022/12/13 01:38:56;;;;;;;7.32;2.22;;;;;;;;;;5126974;28;20044;-76
2022/12/13 01:41:27;;;;;;;4.72;1.33;;;;;;;;;;5125853;27;20607;-76
2022/12/13 01:44:06;;;;;;;4.22;1.55;;;;;;;;;;5129474;27;20054;-76
2022/12/13 01:46:36;;;;;;;5.75;1.73;;;;;;;;;;5129589;27;20047;-75
2022/12/13 01:49:08;;;;;;;4.43;1.10;;;;;;;;;;5130604;27;20043;-76
2022/12/13 01:51:59;;;;;;;4.20;1.10;;;;;;;;;;5130556;27;20050;-73
2022/12/13 01:54:32;;;;;;;;;;;;;;;;;;5128924;27;20699;-76
2022/12/13 01:57:05;;;;;;;2.53;0.90;;;;;;;;;;5130233;27;19938;-75
2022/12/13 01:59:38;;;;;;;2.00;1.40;;;;;;;;;;5130503;27;20509;-76
2022/12/13 02:02:13;;;;;;;1.98;1.00;;;;;;;;;;5130155;27;20047;-75
2022/12/13 02:05:10;;;;;;;4.55;1.17;;;;;;;;;;5130520;27;20409;-75
2022/12/13 02:07:42;;;;;;;3.85;1.20;;;;;;;;;;5130719;27;20042;-75
2022/12/13 02:10:13;;;;;;;5.80;1.48;;;;;;;;;;5130366;27;20047;-75
2022/12/13 02:12:43;;;;;;;8.93;1.48;;;;;;;;;;5130341;27;20043;-75
2022/12/13 02:15:16;;;;;;;4.47;1.05;;;;;;;;;;5130220;27;20043;-76
2022/12/13 02:17:52;;;;;;;4.53;1.20;;;;;;;;;;5130323;27;20047;-76
2022/12/13 02:20:36;;;;;;;4.13;1.40;;;;;;;;;;5129956;27;20058;-75
2022/12/13 02:23:44;;;;;;;6.28;1.60;;;;;;;;;;5130365;27;20043;-75
2022/12/13 02:26:25;;;;;;;4.13;1.20;;;;;;;;;;5106461;27;20047;-75
2022/12/13 02:29:32;;;;;;;3.00;1.10;;;;;;;;;;5128569;27;20043;-76
2022/12/13 02:32:08;;;;;;;4.57;1.58;;;;;;;;;;5129650;27;20031;-75
2022/12/13 02:34:53;;;;;;;2.00;1.17;;;;;;;;;;5130106;27;20043;-75
2022/12/13 02:38:07;;;;;;;4.85;1.20;;;;;;;;;;5130005;27;20369;-75
2022/12/13 02:40:53;;;;;;;9.52;1.60;;;;;;;;;;5129440;27;20046;-76
2022/12/13 02:43:35;;;;;;;1.00;0.90;;;;;;;;;;5129443;27;20384;-75
2022/12/13 02:46:19;;;;;;;3.67;1.35;;;;;;;;;;5129687;27;20078;-75
2022/12/13 02:48:52;;;;;;;7.43;1.30;;;;;;;;;;5128986;27;20031;-76
2022/12/13 02:51:23;;;;;;;4.60;1.30;;;;;;;;;;5129432;27;20381;-75
2022/12/13 02:53:52;;;;;;;7.53;1.60;;;;;;;;;;5129306;27;20039;-76
2022/12/13 02:56:22;;;;;;;2.30;1.17;;;;;;;;;;5128679;27;20043;-74
2022/12/13 02:58:56;;;;;;;1.83;1.15;;;;;;;;;;5129474;27;20039;-75
2022/12/13 03:02:01;;;;;;;6.05;1.63;;;;;;;;;;5129383;27;20415;-75
2022/12/13 03:08:11;;;;;;;7.10;1.33;;;;;;;;;;5127550;27;20051;-75
2022/12/13 03:11:14;;;;;;;6.35;1.67;;;;;;;;;;5129043;27;20047;-75
2022/12/13 03:13:48;;;;;;;5.57;1.60;;;;;;;;;;5127106;27;20051;-76
2022/12/13 03:16:26;;;;;;;6.07;1.13;;;;;;;;;;5125910;27;20047;-76
2022/12/13 03:19:00;;;;;;;6.35;1.38;;;;;;;;;;5128753;27;20047;-75
2022/12/13 03:21:37;;;;;;;3.63;1.00;;;;;;;;;;5128885;27;20041;-75
2022/12/13 03:24:20;;;;;;;4.70;1.00;;;;;;;;;;5129474;27;20051;-75
2022/12/13 03:26:51;;;;;;;3.72;1.20;;;;;;;;;;5128760;27;20039;-75
2022/12/13 03:29:22;;;;;;;2.60;1.10;;;;;;;;;;5128937;27;20039;-75
2022/12/13 03:31:53;;;;;;;5.15;1.30;;;;;;;;;;5128917;27;20038;-75
2022/12/13 03:34:23;;;;;;;2.55;1.45;;;;;;;;;;5129064;27;20496;-75
2022/12/13 03:37:11;;;;;;;6.45;1.30;;;;;;;;;;5128553;27;20043;-75
2022/12/13 03:39:41;;;;;;;5.40;1.30;;;;;;;;;;5128900;27;20035;-75
2022/12/13 03:42:11;;;;;;;6.22;1.95;;;;;;;;;;5128283;27;20481;-75
2022/12/13 03:44:41;;;;;;;4.00;1.30;;;;;;;;;;5128352;27;20043;-75
2022/12/13 03:47:14;;;;;;;6.80;1.55;;;;;;;;;;5128220;27;20039;-75
2022/12/13 03:49:44;;;;;;;3.17;1.40;;;;;;;;;;5127980;27;20066;-75
2022/12/13 03:52:22;;;;;;;3.63;1.00;;;;;;;;;;5128273;27;20054;-75
2022/12/13 03:54:51;;;;;;;7.57;1.40;;;;;;;;;;5127717;27;20058;-75
2022/12/13 03:57:23;;;;;;;2.35;1.10;;;;;;;;;;5127978;27;20047;-75
2022/12/13 03:59:52;;;;;;;3.92;1.50;;;;;;;;;;5128385;27;20503;-76
2022/12/13 04:02:22;;;;;;;3.63;1.40;;;;;;;;;;5128400;27;20374;-75
2022/12/13 04:04:59;;;;;;;4.03;1.05;;;;;;;;;;5125636;27;20043;-76
2022/12/13 04:07:29;;;;;;;4.32;1.42;;;;;;;;;;5128330;27;20035;-75
2022/12/13 04:10:04;;;;;;;6.57;1.67;;;;;;;;;;5128306;27;20485;-75
2022/12/13 04:15:47;;;;;;;5.85;1.30;;;;;;;;;;5128010;27;20047;-75
2022/12/13 04:18:18;;;;;;;7.40;1.83;;;;;;;;;;5128158;27;20065;-76
2022/12/13 04:20:49;;;;;;;4.15;1.33;;;;;;;;;;5126813;27;20066;-75
2022/12/13 04:23:18;;;;;;;3.42;1.27;;;;;;;;;;5125872;27;20069;-76
2022/12/13 04:25:48;;;;;;;2.47;1.40;;;;;;;;;;5127293;27;20047;-75
2022/12/13 04:28:18;;;;;;;4.55;1.77;;;;;;;;;;5127917;27;20059;-75
2022/12/13 04:30:51;;;;;;;4.75;1.23;;;;;;;;;;5127898;27;20047;-75
2022/12/13 04:33:22;;;;;;;5.90;1.52;;;;;;;;;;5127715;27;20035;-75
2022/12/13 04:35:52;;;;;;;3.72;1.48;;;;;;;;;;5127657;27;20051;-76
2022/12/13 04:38:22;;;;;;;3.55;1.40;;;;;;;;;;5124941;27;20047;-75
2022/12/13 04:40:53;;;;;;;3.95;1.45;;;;;;;;;;5125981;27;20374;-76
2022/12/13 04:43:23;;;;;;;4.15;1.50;;;;;;;;;;5127207;27;20043;-75
2022/12/13 04:45:54;;;;;;;3.92;1.60;;;;;;;;;;5127509;27;20035;-75
2022/12/13 04:48:25;;;;;;;5.35;1.35;;;;;;;;;;5127084;27;20062;-76
2022/12/13 04:50:59;;;;;;;3.35;1.50;;;;;;;;;;5126938;27;20039;-75
2022/12/13 04:53:30;;;;;;;4.90;1.40;;;;;;;;;;5127221;27;20035;-75
2022/12/13 04:56:03;;;;;;;8.73;1.25;;;;;;;;;;5127123;28;20401;-75
2022/12/13 04:58:33;;;;;;;6.38;1.50;;;;;;;;;;5126813;28;20047;-75
2022/12/13 05:01:07;;;;;;;4.05;1.65;;;;;;;;;;5127241;28;20035;-75
2022/12/13 05:03:38;;;;;;;1.73;1.30;;;;;;;;;;5127208;27;20043;-76
2022/12/13 05:06:10;;;;;;;8.68;1.45;;;;;;;;;;5128255;28;20051;-77
2022/12/13 05:08:55;;;;;;;4.85;1.40;;;;;;;;;;5127732;28;20040;-75
2022/12/13 05:11:29;;;;;;;3.97;1.38;;;;;;;;;;5126952;28;20042;-75
2022/12/13 05:14:04;;;;;;;5.93;1.80;;;;;;;;;;5126983;28;20039;-75
2022/12/13 05:16:33;;;;;;;6.03;1.50;;;;;;;;;;5126557;27;20066;-75
2022/12/13 05:19:03;;;;;;;6.00;1.42;;;;;;;;;;5131345;27;20039;-75
2022/12/13 05:21:33;;;;;;;4.63;1.33;;;;;;;;;;5130970;27;20043;-75
2022/12/13 05:24:05;;;;;;;4.07;1.33;;;;;;;;;;5131003;27;20039;-76
2022/12/13 05:26:36;;;;;;;2.63;1.52;;;;;;;;;;5131399;27;20501;-76
2022/12/13 05:29:06;;;;;;;5.85;1.65;;;;;;;;;;5131299;27;20043;-76
2022/12/13 05:31:36;;;;;;;5.20;1.02;;;;;;;;;;5131375;27;20043;-76
2022/12/13 05:34:06;;;;;;;4.32;1.40;;;;;;;;;;5130827;27;20043;-75
2022/12/13 05:36:36;;;;;;;5.68;1.40;;;;;;;;;;5130981;27;20050;-75
2022/12/13 05:39:06;;;;;;;4.43;1.20;;;;;;;;;;5130871;27;20050;-76
2022/12/13 05:41:58;;;;;;;5.30;1.00;;;;;;;;;;5131586;27;20520;-75
2022/12/13 05:44:31;;;;;;;2.90;1.20;;;;;;;;;;5131067;27;20058;-75
2022/12/13 05:47:01;;;;;;;6.53;1.25;;;;;;;;;;5130289;27;20386;-75
2022/12/13 05:49:31;;;;;;;7.47;1.65;;;;;;;;;;5130553;27;20504;-75
2022/12/13 05:52:01;;;;;;;3.55;1.40;;;;;;;;;;5130959;27;20056;-76
2022/12/13 05:54:31;;;;;;;6.50;1.60;;;;;;;;;;5130692;27;20396;-75
2022/12/13 05:57:01;;;;;;;2.15;1.38;;;;;;;;;;5130485;27;20035;-75
2022/12/13 05:59:32;;;;;;;1.85;1.30;;;;;;;;;;5130309;27;20054;-75
2022/12/13 06:02:03;;;;;;;3.85;1.33;;;;;;;;;;5128398;27;20047;-75
2022/12/13 06:04:33;;;;;;;6.68;1.27;;;;;;;;;;5130300;27;20054;-76
2022/12/13 06:07:02;;;;;;;2.30;1.23;;;;;;;;;;5130104;27;20051;-76
2022/12/13 06:09:32;;;;;;;2.55;1.25;;;;;;;;;;5130015;27;20401;-75
2022/12/13 06:12:11;;;;;;;2.47;1.80;;;;;;;;;;5130405;27;20055;-75
2022/12/13 06:15:00;;;;;;;4.32;1.60;;;;;;;;;;5130308;27;20039;-75
2022/12/13 06:17:31;;;;;;;3.58;1.55;;;;;;;;;;5129793;27;20050;-76
2022/12/13 06:20:04;;;;;;;2.25;2.03;;;;;;;;;;5130068;27;20046;-75
2022/12/13 06:22:53;;;;;;;5.50;1.50;;;;;;;;;;5130352;27;20507;-75
2022/12/13 06:25:22;;;;;;;6.10;1.77;;;;;;;;;;5130143;27;20043;-75
2022/12/13 06:28:00;;;;;;;7.03;2.90;;;;;;;;;;5129364;27;20051;-76
2022/12/13 06:30:31;;;;;;;8.80;2.30;;;;;;;;;;5130298;27;20500;-75
2022/12/13 06:33:00;;;;;;;5.40;2.20;;;;;;;;;;5129857;27;20043;-75
2022/12/13 06:35:32;;;;;;;5.63;2.20;;;;;;;;;;5127923;27;20043;-75
2022/12/13 06:38:09;;;;;;;19.92;1.58;;;;;;;;;;5129645;27;20039;-76
2022/12/13 06:40:40;;;;;;;78.47;2.67;;;;;;;;;;5129796;27;20054;-75
2022/12/13 06:43:09;;;;;;;57.47;2.65;;;;;;;;;;5128410;27;20055;-75
2022/12/13 06:45:39;;;;;;;64.65;3.17;;;;;;;;;;5129444;27;20043;-75
2022/12/13 06:48:10;;;;;;;18.08;1.00;;;;;;;;;;5129210;27;20047;-76
2022/12/13 06:50:47;;;;;;;34.03;2.20;;;;;;;;;;5129574;27;20507;-75
2022/12/13 06:53:17;;;;;;;8.27;1.92;;;;;;;;;;5129327;27;20566;-75
2022/12/13 06:55:47;;;;;;;8.10;2.40;;;;;;;;;;5129381;27;20050;-75
2022/12/13 06:58:17;;;;;;;8.63;2.50;;;;;;;;;;5129328;27;20042;-75
2022/12/13 07:00:47;;;;;;;10.02;3.15;;;;;;;;;;5129416;27;20039;-75
2022/12/13 07:03:17;;;;;;;9.45;2.85;;;;;;;;;;5129774;27;20047;-75
2022/12/13 07:05:46;;;;;;;9.20;2.30;;;;;;;;;;5129022;27;20051;-75
2022/12/13 07:08:24;;;;;;;6.68;3.08;;;;;;;;;;5128076;27;20039;-75
2022/12/13 07:10:54;;;;;;;6.78;2.92;;;;;;;;;;5128956;27;20043;-75
2022/12/13 07:13:24;;;;;;;7.57;2.60;;;;;;;;;;5129446;27;20039;-75
2022/12/13 07:15:54;;;;;;;4.80;3.05;;;;;;;;;;5129168;27;20516;-75
2022/12/13 07:18:29;;;;;;;9.10;3.10;;;;;;;;;;5128712;27;20035;-76
2022/12/13 07:20:59;;;;;;;5.47;2.70;;;;;;;;;;5128683;27;20395;-75
2022/12/13 07:23:29;;;;;;;10.20;2.65;;;;;;;;;;5127942;27;20055;-75
2022/12/13 07:25:58;;;;;;;8.77;2.53;;;;;;;;;;5110267;27;20713;-75
2022/12/13 07:28:31;;;;;;;6.97;2.40;;;;;;;;;;5128506;27;20051;-75
2022/12/13 07:31:03;;;;;;;6.55;2.17;;;;;;;;;;5129148;27;20050;-75
2022/12/13 07:33:33;;;;;;;4.30;2.15;;;;;;;;;;5128557;27;20043;-75
2022/12/13 07:36:17;;;;;;;4.13;1.92;;;;;;;;;;5128581;27;20481;-75
2022/12/13 07:38:55;;;;;;;5.68;2.05;;;;;;;;;;5128296;27;20043;-75
2022/12/13 07:41:26;;;;;;;12.05;2.50;;;;;;;;;;5128579;27;20062;-75
2022/12/13 07:44:00;;;;;;;8.77;1.92;;;;;;;;;;5126936;27;20595;-76
2022/12/13 07:46:30;;;;;;;6.10;2.40;;;;;;;;;;5128551;27;20043;-75
2022/12/13 07:49:03;;;;;;;7.00;2.30;;;;;;;;;;5128470;27;20046;-75
2022/12/13 07:51:34;;;;;;;4.70;2.40;;;;;;;;;;5128433;27;20512;-75
2022/12/13 07:54:07;;;;;;;4.68;2.13;;;;;;;;;;5128095;27;20043;-75
2022/12/13 07:56:37;;;;;;;9.20;2.50;;;;;;;;;;5126020;27;20054;-75
2022/12/13 07:59:09;;;;;;;6.00;1.95;;;;;;;;;;5128161;27;20426;-75
2022/12/13 08:01:39;;;;;;;7.30;2.30;;;;;;;;;;5128501;27;20050;-75
2022/12/13 08:04:09;;;;;;;5.32;2.38;;;;;;;;;;5128452;27;20043;-75
2022/12/13 08:06:40;;;;;;;4.35;2.03;;;;;;;;;;5128526;27;20047;-75
2022/12/13 08:09:10;;;;;;;5.10;2.50;;;;;;;;;;5129105;27;20059;-75
2022/12/13 08:11:40;;;;;;;4.97;1.98;;;;;;;;;;5127978;27;20038;-75
2022/12/13 08:14:09;;;;;;;;;;;;;;;;;;5128073;27;20049;-75
2022/12/13 08:16:39;;;;;;;10.18;2.67;;;;;;;;;;5127762;27;19919;-75
2022/12/13 08:19:10;;;;;;;10.40;2.63;;;;;;;;;;5128263;27;20042;-75
2022/12/13 08:21:41;;;;;;;8.63;2.90;;;;;;;;;;5127586;27;20496;-75
2022/12/13 08:24:30;;;;;;;7.68;2.53;;;;;;;;;;5127957;27;20490;-76
2022/12/13 08:27:01;;;;;;;8.93;5.00;;;;;;;;;;5127775;27;20047;-75
2022/12/13 08:29:34;;;;;;;9.15;3.75;;;;;;;;;;5127419;27;20039;-75
2022/12/13 08:32:10;;;;;;;13.43;4.18;;;;;;;;;;5126114;27;20047;-75
2022/12/13 08:34:41;;;;;;;13.90;5.88;;;;;;;;;;5128006;27;20042;-75
2022/12/13 08:37:12;;;;;;;16.33;6.80;;;;;;;;;;5128384;27;20481;-75
2022/12/13 08:39:43;;;;;;;14.27;6.53;;;;;;;;;;5127754;27;20039;-76
2022/12/13 08:42:16;;;;;;;12.93;5.55;;;;;;;;;;5127297;27;20043;-75
2022/12/13 08:44:49;;;;;;;12.80;7.05;;;;;;;;;;5127457;27;20393;-75
2022/12/13 08:47:21;;;;;;;20.48;7.78;;;;;;;;;;5126625;27;20521;-75
2022/12/13 08:49:58;;;;;;;19.02;7.18;;;;;;;;;;5127635;27;20043;-75
2022/12/13 08:52:32;;;;;;;16.65;7.10;;;;;;;;;;5127006;27;20035;-80
2022/12/13 08:55:10;;;;;;;10.52;6.22;;;;;;;;;;5127124;27;20048;-75
2022/12/13 08:57:41;;;;;;;9.63;5.28;;;;;;;;;;5110194;28;20052;-75
2022/12/13 09:00:18;;;;;;;14.85;6.30;;;;;;;;;;5106985;28;20039;-75
2022/12/13 09:02:49;;;;;;;11.63;5.20;;;;;;;;;;5106178;28;20439;-76
2022/12/13 09:05:19;;;;;;;13.38;5.85;;;;;;;;;;5104896;28;20379;-75
2022/12/13 09:08:03;;;;;;;14.75;4.95;;;;;;;;;;5106968;28;20036;-75
2022/12/13 09:10:58;;;;;;;14.75;5.00;;;;;;;;;;5106847;28;20493;-75
2022/12/13 09:13:29;;;;;;;9.85;5.10;;;;;;;;;;5106656;28;20036;-75
2022/12/13 09:16:12;;;;;;;15.55;5.80;;;;;;;;;;5106807;28;20048;-75
2022/12/13 09:18:54;;;;;;;9.88;5.05;;;;;;;;;;5106231;28;20043;-75
2022/12/13 09:21:24;;;;;;;10.93;6.05;;;;;;;;;;5106171;28;20054;-77
2022/12/13 09:24:00;;;;;;;14.70;5.57;;;;;;;;;;5105723;28;20043;-75
2022/12/13 09:26:30;;;;;;;11.45;5.60;;;;;;;;;;5105512;28;20044;-76
2022/12/13 09:29:07;;;;;;;10.10;5.07;;;;;;;;;;5106672;28;20040;-76
2022/12/13 09:31:39;;;;;;;7.80;5.18;;;;;;;;;;5106359;28;20486;-77
2022/12/13 09:34:10;;;;;;;8.13;4.30;;;;;;;;;;5106176;28;20047;-76
2022/12/13 09:36:41;;;;;;;14.40;5.13;;;;;;;;;;5106968;28;20474;-79
2022/12/13 09:39:11;;;;;;;6.47;4.03;;;;;;;;;;5106647;28;20066;-75
2022/12/13 09:41:45;;;;;;;9.68;3.88;;;;;;;;;;5106445;28;20481;-76
2022/12/13 09:44:21;;;;;;;10.13;3.85;;;;;;;;;;5106345;28;20036;-80
2022/12/13 09:47:04;;;;;;;14.68;5.35;;;;;;;;;;5106177;28;20512;-77
2022/12/13 09:49:44;;;;;;;569.35;129.85;;;;;;;;;;5106143;28;20040;-77
2022/12/13 09:52:23;;;;;;;285.60;56.65;;;;;;;;;;5106300;28;20044;-78
2022/12/13 09:55:01;;;;;;;13.40;4.88;;;;;;;;;;5105942;28;20043;-77
2022/12/13 09:57:38;;;;;;;51.40;12.80;;;;;;;;;;5105965;28;20859;-76
2022/12/13 10:00:12;;;;;;;16.58;5.50;;;;;;;;;;5106289;28;20047;-78
2022/12/13 10:02:46;;;;;;;60.67;13.40;;;;;;;;;;5106729;28;20050;-77
2022/12/13 10:05:37;;;;;;;22.15;5.53;;;;;;;;;;5108737;28;20063;-76
2022/12/13 10:08:12;;;;;;;22.52;5.47;;;;;;;;;;5109607;28;20386;-75
2022/12/13 10:10:43;;;;;;;145.60;28.17;;;;;;;;;;5109247;28;20039;-76
2022/12/13 10:13:20;;;;;;;15.95;4.10;;;;;;;;;;5110651;28;20058;-75
2022/12/13 10:15:58;;;;;;;11.15;3.83;;;;;;;;;;5109683;28;20051;-76
2022/12/13 10:18:36;;;;;;;13.27;3.40;;;;;;;;;;5109513;28;20036;-76
2022/12/13 10:21:40;;;;;;;18.33;4.30;;;;;;;;;;5109761;28;20048;-76
2022/12/13 10:24:24;;;;;;;9.57;2.97;;;;;;;;;;5107625;28;20068;-80
2022/12/13 10:27:25;;;;;;;13.02;2.70;;;;;;;;;;5109215;28;20046;-76
2022/12/13 10:30:12;;;;;;;5.57;2.35;;;;;;;;;;5109187;28;20040;-78
2022/12/13 10:32:58;;;;;;;6.53;2.75;;;;;;;;;;5107922;28;20051;-75
2022/12/13 10:35:33;;;;;;;6.70;2.38;;;;;;;;;;5108993;28;20043;-75
2022/12/13 10:38:07;;;;;;;9.90;3.20;;;;;;;;;;5109065;28;20036;-74
2022/12/13 10:40:44;;;;;;;9.60;2.20;;;;;;;;;;5109572;28;20054;-77
2022/12/13 10:43:20;;;;;;;4.55;1.80;;;;;;;;;;5108639;28;20050;-74
2022/12/13 10:46:02;;;;;;;6.88;2.05;;;;;;;;;;5120846;27;20520;-74
2022/12/13 10:48:49;;;;;;;8.45;2.00;;;;;;;;;;5109442;28;20040;-76
2022/12/13 10:51:21;;;;;;;5.88;2.10;;;;;;;;;;5116344;27;20047;-75
2022/12/13 10:53:57;;;;;;;7.00;2.40;;;;;;;;;;5129151;27;20488;-72
2022/12/13 10:56:46;;;;;;;10.30;2.17;;;;;;;;;;5129158;27;20513;-76
2022/12/13 10:59:25;;;;;;;5.05;2.13;;;;;;;;;;5129585;27;20504;-77
2022/12/13 11:01:55;;;;;;;9.88;2.63;;;;;;;;;;5127701;27;20078;-76
2022/12/13 11:04:33;;;;;;;7.43;2.28;;;;;;;;;;5129042;27;20043;-75
2022/12/13 11:07:25;;;;;;;11.55;2.33;;;;;;;;;;5129501;27;20054;-76
2022/12/13 11:09:55;;;;;;;6.35;2.60;;;;;;;;;;5128955;27;20036;-74
2022/12/13 11:12:33;;;;;;;5.18;2.30;;;;;;;;;;5129181;27;20043;-74
2022/12/13 11:15:06;;;;;;;6.15;2.33;;;;;;;;;;5129658;27;20047;-74
2022/12/13 11:17:45;;;;;;;6.57;2.28;;;;;;;;;;5128565;27;20043;-75
2022/12/13 11:20:21;;;;;;;4.85;2.28;;;;;;;;;;5128956;27;20035;-79
2022/12/13 11:23:07;;;;;;;9.05;2.58;;;;;;;;;;5128362;27;20092;-75
2022/12/13 11:25:42;;;;;;;10.88;4.22;;;;;;;;;;5128649;27;20050;-76
2022/12/13 11:28:12;;;;;;;;;;;;;;;;;;5128519;27;20039;-75
2022/12/13 11:31:22;;;;;;;10.55;3.38;;;;;;;;;;5126686;27;19927;-76
2022/12/13 11:34:16;;;;;;;7.82;2.83;;;;;;;;;;5128609;27;20576;-75
2022/12/13 11:36:56;;;;;;;8.70;3.10;;;;;;;;;;5126260;27;20051;-75
2022/12/13 11:39:26;;;;;;;8.77;3.08;;;;;;;;;;5126147;27;20489;-80
2022/12/13 11:42:14;;;;;;;5.13;2.78;;;;;;;;;;5126462;27;20038;-75
2022/12/13 11:45:10;;;;;;;9.40;2.58;;;;;;;;;;5127799;27;20046;-76
2022/12/13 11:48:02;;;;;;;6.07;2.60;;;;;;;;;;5128448;27;20098;-75
2022/12/13 11:50:39;;;;;;;5.85;2.95;;;;;;;;;;5128058;27;20054;-75
2022/12/13 11:53:18;;;;;;;9.20;3.20;;;;;;;;;;5128253;27;20043;-76
2022/12/13 11:56:03;;;;;;;9.30;3.65;;;;;;;;;;5128293;27;20039;-75
2022/12/13 11:58:58;;;;;;;12.40;3.15;;;;;;;;;;5128503;27;20039;-79
2022/12/13 12:01:55;;;;;;;11.02;3.45;;;;;;;;;;5128275;27;20047;-75
2022/12/13 12:04:38;;;;;;;9.73;3.65;;;;;;;;;;5128753;27;20042;-75
2022/12/13 12:07:19;;;;;;;17.15;4.60;;;;;;;;;;5127230;27;20054;-75
2022/12/13 12:10:24;;;;;;;10.32;3.20;;;;;;;;;;5127885;27;20042;-75
2022/12/13 12:13:25;;;;;;;15.38;3.92;;;;;;;;;;5127956;27;20043;-75
2022/12/13 12:16:10;;;;;;;9.40;4.32;;;;;;;;;;5118893;27;20058;-76
2022/12/13 12:18:40;;;;;;;11.38;4.63;;;;;;;;;;5127947;27;20041;-75
2022/12/13 12:21:37;;;;;;;8.57;4.45;;;;;;;;;;5125793;27;20058;-75
2022/12/13 12:24:53;;;;;;;13.20;4.28;;;;;;;;;;5128184;27;20051;-77
2022/12/13 12:27:48;;;;;;;9.45;4.50;;;;;;;;;;5127315;27;20042;-77
2022/12/13 12:30:56;;;;;;;8.70;3.88;;;;;;;;;;5127641;27;20047;-75
2022/12/13 12:33:37;;;;;;;8.73;4.63;;;;;;;;;;5105507;27;20062;-75
2022/12/13 12:36:17;;;;;;;8.20;4.40;;;;;;;;;;5128027;27;20043;-75
2022/12/13 12:38:58;;;;;;;13.23;4.47;;;;;;;;;;5127207;27;20043;-79
2022/12/13 12:41:31;;;;;;;14.05;5.10;;;;;;;;;;5126661;27;20493;-76
2022/12/13 12:44:22;;;;;;;11.45;4.43;;;;;;;;;;5127746;27;20442;-76
2022/12/13 12:47:07;;;;;;;9.80;4.70;;;;;;;;;;5127665;27;20381;-74
2022/12/13 12:50:30;;;;;;;8.68;4.43;;;;;;;;;;5127294;27;20039;-75
2022/12/13 12:53:23;;;;;;;10.95;5.05;;;;;;;;;;5127157;27;20070;-75
2022/12/13 12:56:20;;;;;;;7.13;4.05;;;;;;;;;;5127525;27;20035;-75
2022/12/13 12:58:55;;;;;;;9.27;4.20;;;;;;;;;;5127377;27;20504;-74
2022/12/13 13:01:25;;;;;;;;;;;;;;;;;;5127191;28;20039;-74
2022/12/13 13:03:56;;;;;;;11.60;5.00;;;;;;;;;;5127533;27;19920;-76
2022/12/13 13:06:35;;;;;;;10.35;5.20;;;;;;;;;;5127327;27;20055;-75
2022/12/13 13:09:11;;;;;;;13.23;5.00;;;;;;;;;;5127875;27;20038;-75
2022/12/13 13:11:43;;;;;;;8.77;4.60;;;;;;;;;;5127581;28;20043;-75
2022/12/13 13:14:35;;;;;;;9.30;4.75;;;;;;;;;;5127383;27;20034;-75
2022/12/13 13:17:23;;;;;;;10.82;4.57;;;;;;;;;;5126803;28;20413;-75
2022/12/13 13:20:28;;;;;;;12.05;5.45;;;;;;;;;;5127213;28;20403;-75
2022/12/13 13:22:58;;;;;;;11.48;5.50;;;;;;;;;;5042956;28;20056;-78
2022/12/13 13:25:55;;;;;;;13.77;5.53;;;;;;;;;;5125553;27;20052;-75
2022/12/13 13:28:45;;;;;;;13.90;6.25;;;;;;;;;;5126978;28;20039;-75
2022/12/13 13:31:14;;;;;;;10.27;6.07;;;;;;;;;;5127115;28;20044;-74
2022/12/13 13:33:47;;;;;;;11.35;5.53;;;;;;;;;;5126575;28;20047;-75
2022/12/13 13:36:42;;;;;;;11.50;5.85;;;;;;;;;;5127429;27;20046;-74
2022/12/13 13:39:18;;;;;;;11.60;6.75;;;;;;;;;;5129818;27;20065;-75
2022/12/13 13:42:13;;;;;;;11.50;6.85;;;;;;;;;;5130739;27;20047;-75
2022/12/13 13:44:45;;;;;;;15.27;7.35;;;;;;;;;;5130566;27;20035;-75
2022/12/13 13:47:18;;;;;;;15.23;7.85;;;;;;;;;;5129717;27;20398;-75
2022/12/13 13:50:23;;;;;;;15.02;7.30;;;;;;;;;;5130670;27;20046;-74
2022/12/13 13:53:23;;;;;;;15.25;8.20;;;;;;;;;;5123587;27;20058;-76
2022/12/13 13:56:24;;;;;;;16.02;7.50;;;;;;;;;;5129074;27;20035;-75
2022/12/13 13:59:17;;;;;;;13.48;7.22;;;;;;;;;;5130331;27;20619;-76
2022/12/13 14:01:59;;;;;;;15.85;8.05;;;;;;;;;;5131149;27;20043;-76
2022/12/13 14:04:33;;;;;;;16.73;8.45;;;;;;;;;;5131908;27;20043;-75
2022/12/13 14:07:37;;;;;;;15.65;7.97;;;;;;;;;;5112904;27;20532;-75
2022/12/13 14:10:26;;;;;;;17.60;8.88;;;;;;;;;;5129616;27;20070;-77
2022/12/13 14:13:33;;;;;;;17.35;8.23;;;;;;;;;;5129351;27;20043;-76
2022/12/13 14:16:37;;;;;;;17.83;8.65;;;;;;;;;;5130902;27;20050;-75
2022/12/13 14:19:28;;;;;;;17.95;8.75;;;;;;;;;;5130950;27;20043;-75
2022/12/13 14:22:24;;;;;;;17.90;7.82;;;;;;;;;;5130458;27;20042;-79
2022/12/13 14:24:54;;;;;;;16.27;7.75;;;;;;;;;;5129228;27;20043;-75
2022/12/13 14:27:46;;;;;;;14.60;7.28;;;;;;;;;;5128327;27;20058;-75
2022/12/13 14:30:23;;;;;;;15.00;6.70;;;;;;;;;;5130098;27;20039;-75
2022/12/13 14:32:58;;;;;;;15.45;7.57;;;;;;;;;;5131409;27;20031;-76
2022/12/13 14:35:32;;;;;;;19.33;7.35;;;;;;;;;;5128877;27;20043;-74
2022/12/13 14:38:05;;;;;;;17.52;7.65;;;;;;;;;;5129560;27;20043;-74
2022/12/13 14:40:48;;;;;;;15.50;7.13;;;;;;;;;;5127409;27;20580;-75
2022/12/13 14:43:30;;;;;;;13.88;6.85;;;;;;;;;;5129456;27;20047;-76
2022/12/13 14:46:04;;;;;;;12.65;6.53;;;;;;;;;;5129389;27;20031;-82
2022/12/13 14:48:53;;;;;;;13.63;6.90;;;;;;;;;;5129106;27;20039;-75
2022/12/13 14:51:31;;;;;;;15.35;7.28;;;;;;;;;;5129584;27;20043;-75
2022/12/13 14:54:03;;;;;;;14.70;6.53;;;;;;;;;;5129460;27;20043;-74
2022/12/13 14:56:34;;;;;;;16.38;6.82;;;;;;;;;;5129384;27;20042;-75
2022/12/13 14:59:12;;;;;;;15.20;7.60;;;;;;;;;;5129380;27;20039;-79
2022/12/13 15:01:43;;;;;;;15.00;6.80;;;;;;;;;;5129970;27;20040;-77
2022/12/13 15:04:30;;;;;;;12.35;6.72;;;;;;;;;;5128602;27;20501;-76
2022/12/13 15:07:08;;;;;;;13.32;6.05;;;;;;;;;;5129204;27;20417;-78
2022/12/13 15:09:41;;;;;;;11.85;6.47;;;;;;;;;;5129228;27;20043;-78
2022/12/13 15:12:18;;;;;;;13.38;6.70;;;;;;;;;;5128923;27;20054;-75
2022/12/13 15:15:01;;;;;;;12.60;6.40;;;;;;;;;;5129038;27;20043;-74
2022/12/13 15:17:41;;;;;;;13.60;6.57;;;;;;;;;;5128356;27;20043;-76
2022/12/13 15:20:25;;;;;;;15.73;7.68;;;;;;;;;;5129118;27;20035;-78
2022/12/13 15:23:29;;;;;;;12.75;6.10;;;;;;;;;;5129307;27;20362;-79
2022/12/13 15:26:07;;;;;;;12.52;6.38;;;;;;;;;;5127785;27;20047;-75
2022/12/13 15:28:42;;;;;;;13.35;6.30;;;;;;;;;;5128454;27;20046;-78
2022/12/13 15:31:14;;;;;;;16.52;7.10;;;;;;;;;;5127471;27;20043;-75
2022/12/13 15:33:44;;;;;;;13.02;7.25;;;;;;;;;;5128633;27;20038;-74
2022/12/13 15:36:24;;;;;;;14.43;6.97;;;;;;;;;;5128640;27;20043;-78
2022/12/13 15:38:54;;;;;;;14.55;6.82;;;;;;;;;;5128485;27;20047;-74
2022/12/13 15:41:28;;;;;;;14.23;7.72;;;;;;;;;;5128975;27;20046;-74
2022/12/13 15:44:05;;;;;;;14.13;7.15;;;;;;;;;;5128482;27;20050;-75